Time;durP1;ratioP1;P1;durP2;ratioP2;P2;SDS_P1;SDS_P2;PMS_P1;PMS_P2;Temp;Humidity;BMP_temperature;BMP_pressure;BME280_temperature;BME280_humidity;BME280_pressure;Samples;Min_cycle;Max_cycle;Signal;HPM_P1;HPM_P2
2022/02/21 00:02:02;;;;;;;1.73;1.20;;;11.00;99.90;;;;;;5047063;28;20574;-68
2022/02/21 00:04:28;;;;;;;1.23;0.97;;;11.00;99.90;;;;;;5046135;28;20256;-68
2022/02/21 00:06:53;;;;;;;2.77;1.00;;;11.00;99.90;;;;;;5028742;28;20740;-68
2022/02/21 00:09:19;;;;;;;2.80;1.23;;;11.10;99.90;;;;;;5046951;28;20210;-67
2022/02/21 00:11:44;;;;;;;1.73;1.00;;;11.10;99.90;;;;;;5045687;28;20201;-68
2022/02/21 00:14:10;;;;;;;3.20;1.00;;;11.10;99.90;;;;;;5047118;28;20201;-68
2022/02/21 00:16:36;;;;;;;2.70;1.20;;;11.10;99.90;;;;;;5045501;28;20174;-67
2022/02/21 00:19:01;;;;;;;2.10;1.13;;;11.10;99.90;;;;;;5046910;28;20197;-68
2022/02/21 00:21:29;;;;;;;5.10;1.27;;;11.20;99.90;;;;;;5046850;28;20531;-67
2022/02/21 00:23:55;;;;;;;1.83;0.93;;;11.10;99.90;;;;;;5045716;28;20198;-67
2022/02/21 00:26:21;;;;;;;2.70;1.00;;;11.20;99.90;;;;;;5047855;28;20422;-68
2022/02/21 00:28:47;;;;;;;1.63;1.03;;;11.30;99.90;;;;;;5045956;28;20228;-68
2022/02/21 00:31:13;;;;;;;1.50;1.07;;;11.20;99.90;;;;;;5048934;28;20172;-68
2022/02/21 00:33:39;;;;;;;2.10;1.20;;;11.10;99.90;;;;;;5029194;28;20510;-68
2022/02/21 00:36:05;;;;;;;2.53;1.20;;;11.10;99.90;;;;;;5049397;28;21009;-69
2022/02/21 00:38:31;;;;;;;2.27;1.27;;;11.20;99.90;;;;;;5047975;28;20184;-68
2022/02/21 00:40:57;;;;;;;1.97;1.00;;;11.20;99.90;;;;;;5044093;28;20439;-68
2022/02/21 00:43:23;;;;;;;2.00;1.57;;;11.20;99.90;;;;;;5046332;28;20473;-68
2022/02/21 00:45:49;;;;;;;2.77;1.63;;;11.10;99.90;;;;;;5044952;28;20436;-68
2022/02/21 00:48:15;;;;;;;3.13;1.13;;;11.10;99.90;;;;;;5046301;28;21493;-68
2022/02/21 00:50:40;;;;;;;3.47;1.30;;;11.20;99.90;;;;;;5045058;28;20452;-68
2022/02/21 00:53:06;;;;;;;2.70;1.50;;;11.20;99.90;;;;;;5046618;28;20189;-68
2022/02/21 00:55:34;;;;;;;3.33;2.03;;;11.10;99.90;;;;;;5085994;22;20709;-70
2022/02/21 00:58:00;;;;;;;7.40;1.90;;;11.00;99.90;;;;;;5066161;28;20347;-68
2022/02/21 01:00:27;;;;;;;4.87;1.30;;;10.90;99.90;;;;;;5065293;28;20513;-69
2022/02/21 01:02:52;;;;;;;4.00;1.43;;;10.90;99.90;;;;;;5066313;28;20419;-72
2022/02/21 01:05:18;;;;;;;4.70;1.30;;;10.90;99.90;;;;;;5065115;28;20969;-71
2022/02/21 01:07:44;;;;;;;3.07;1.77;;;10.90;99.90;;;;;;5065009;28;20320;-69
2022/02/21 01:10:09;;;;;;;2.50;1.43;;;10.80;99.90;;;;;;5065040;28;20947;-69
2022/02/21 01:12:35;;;;;;;3.30;1.33;;;10.80;99.90;;;;;;5065873;28;20177;-69
2022/02/21 01:15:01;;;;;;;2.23;1.10;;;10.80;99.90;;;;;;5065309;28;20200;-70
2022/02/21 01:17:28;;;;;;;2.57;1.10;;;10.90;99.90;;;;;;5064499;28;20186;-70
2022/02/21 01:19:53;;;;;;;1.57;1.10;;;10.80;99.90;;;;;;5065737;28;20470;-70
2022/02/21 01:22:19;;;;;;;3.77;1.30;;;10.70;99.90;;;;;;5065009;28;20943;-71
2022/02/21 01:24:45;;;;;;;1.70;1.27;;;10.70;99.90;;;;;;5065393;28;20207;-70
2022/02/21 01:27:14;;;;;;;4.20;1.30;;;10.70;99.90;;;;;;5065461;28;20853;-69
2022/02/21 01:29:40;;;;;;;1.97;1.40;;;10.80;99.90;;;;;;5065736;28;20190;-70
2022/02/21 01:32:06;;;;;;;2.40;1.10;;;10.80;99.90;;;;;;5065490;28;20416;-69
2022/02/21 01:34:32;;;;;;;2.53;1.53;;;10.70;99.90;;;;;;5047241;28;20564;-68
2022/02/21 01:36:58;;;;;;;4.30;1.30;;;10.60;99.90;;;;;;5065177;28;20407;-69
2022/02/21 01:39:23;;;;;;;1.67;1.13;;;10.60;99.90;;;;;;5064673;28;20566;-70
2022/02/21 01:41:49;;;;;;;3.43;1.40;;;10.60;99.90;;;;;;5046724;28;20181;-68
2022/02/21 01:44:15;;;;;;;3.03;1.53;;;10.60;99.90;;;;;;5065244;28;20584;-69
2022/02/21 01:46:42;;;;;;;1.80;1.10;;;10.50;99.90;;;;;;5064481;28;20217;-69
2022/02/21 01:49:09;;;;;;;3.30;0.90;;;10.60;99.90;;;;;;5064730;28;20940;-70
2022/02/21 01:51:36;;;;;;;2.13;1.10;;;10.60;99.90;;;;;;5046250;28;20432;-70
2022/02/21 01:54:05;;;;;;;4.07;1.23;;;10.70;99.90;;;;;;5064881;28;20443;-70
2022/02/21 01:56:31;;;;;;;1.83;1.73;;;10.70;99.90;;;;;;5064100;28;20861;-69
2022/02/21 01:58:57;;;;;;;1.27;1.00;;;10.70;99.90;;;;;;5064927;28;20458;-69
2022/02/21 02:01:22;;;;;;;3.60;1.23;;;10.80;99.90;;;;;;5064171;28;20570;-69
2022/02/21 02:03:48;;;;;;;2.10;1.00;;;10.80;99.90;;;;;;5064463;28;20179;-72
2022/02/21 02:06:15;;;;;;;2.10;1.10;;;10.80;99.90;;;;;;5064987;28;20187;-71
2022/02/21 02:08:40;;;;;;;2.87;0.90;;;10.70;99.90;;;;;;5064129;28;20286;-70
2022/02/21 02:11:06;;;;;;;2.37;1.00;;;10.70;99.90;;;;;;5064452;28;20487;-69
2022/02/21 02:13:32;;;;;;;2.93;1.30;;;10.70;99.90;;;;;;5064308;28;20174;-69
2022/02/21 02:15:57;;;;;;;1.33;0.90;;;10.60;99.90;;;;;;5064833;28;20667;-69
2022/02/21 02:18:23;;;;;;;2.67;1.20;;;10.60;99.90;;;;;;5063572;28;20717;-69
2022/02/21 02:20:49;;;;;;;1.50;0.70;;;10.60;99.90;;;;;;5063971;28;20639;-69
2022/02/21 02:23:15;;;;;;;2.30;0.70;;;10.60;99.90;;;;;;5064125;28;20181;-72
2022/02/21 02:25:41;;;;;;;2.87;1.10;;;10.70;99.90;;;;;;5063613;28;20448;-71
2022/02/21 02:28:08;;;;;;;1.77;0.90;;;10.70;99.90;;;;;;5063732;28;20487;-71
2022/02/21 02:30:34;;;;;;;1.93;0.80;;;10.60;99.90;;;;;;5064424;28;20435;-69
2022/02/21 02:33:00;;;;;;;2.10;1.20;;;10.60;99.90;;;;;;5044734;28;20484;-71
2022/02/21 02:35:27;;;;;;;1.67;0.80;;;10.50;99.90;;;;;;5064304;28;20478;-72
2022/02/21 02:37:54;;;;;;;1.73;1.00;;;10.50;99.90;;;;;;5062810;28;20419;-70
2022/02/21 02:40:20;;;;;;;2.60;1.03;;;10.50;99.90;;;;;;5064124;28;20422;-69
2022/02/21 02:42:45;;;;;;;3.60;1.20;;;10.40;99.90;;;;;;5063965;28;20495;-70
2022/02/21 02:45:11;;;;;;;1.60;0.77;;;10.40;99.90;;;;;;5062590;28;20198;-69
2022/02/21 02:47:37;;;;;;;1.77;0.90;;;10.40;99.90;;;;;;5064002;28;20180;-70
2022/02/21 02:50:04;;;;;;;2.67;0.90;;;10.20;99.90;;;;;;5063223;28;20665;-69
2022/02/21 02:52:30;;;;;;;2.90;1.00;;;10.20;99.90;;;;;;5063791;28;20197;-70
2022/02/21 02:54:55;;;;;;;2.37;1.00;;;10.10;99.90;;;;;;5062918;28;20463;-70
2022/02/21 02:57:21;;;;;;;1.83;1.00;;;10.10;99.90;;;;;;5063669;28;20186;-71
2022/02/21 02:59:46;;;;;;;1.87;0.93;;;10.10;99.90;;;;;;5063078;28;20236;-71
2022/02/21 03:02:12;;;;;;;2.03;1.20;;;10.10;99.90;;;;;;5063716;28;20182;-68
2022/02/21 03:04:38;;;;;;;1.67;1.07;;;10.20;99.90;;;;;;5062801;28;20202;-70
2022/02/21 03:07:03;;;;;;;2.63;0.97;;;10.10;99.90;;;;;;5063622;28;20178;-69
2022/02/21 03:09:29;;;;;;;2.43;1.20;;;10.20;99.90;;;;;;5062736;28;20604;-70
2022/02/21 03:11:55;;;;;;;3.23;0.90;;;10.20;99.90;;;;;;5063276;28;20166;-69
2022/02/21 03:14:22;;;;;;;2.53;0.90;;;10.40;99.90;;;;;;5063852;28;20199;-70
2022/02/21 03:16:48;;;;;;;2.07;0.90;;;10.50;99.90;;;;;;5062222;28;20780;-70
2022/02/21 03:19:14;;;;;;;1.47;0.90;;;10.50;99.90;;;;;;5063560;28;20462;-71
2022/02/21 03:21:39;;;;;;;1.70;0.90;;;10.60;99.90;;;;;;5062314;28;21000;-70
2022/02/21 03:24:05;;;;;;;1.33;0.70;;;10.70;99.90;;;;;;5063047;28;20950;-69
2022/02/21 03:26:31;;;;;;;2.13;0.70;;;10.60;99.90;;;;;;5062999;28;20567;-70
2022/02/21 03:28:56;;;;;;;2.23;1.00;;;10.50;99.90;;;;;;5062570;28;20459;-69
2022/02/21 03:31:22;;;;;;;4.87;1.17;;;10.50;99.90;;;;;;5062993;28;20631;-69
2022/02/21 03:33:48;;;;;;;1.33;0.80;;;10.50;99.90;;;;;;5063250;28;20178;-70
2022/02/21 03:36:14;;;;;;;1.90;0.80;;;10.60;99.90;;;;;;5062819;28;20254;-70
2022/02/21 03:38:40;;;;;;;1.20;0.90;;;10.60;99.90;;;;;;5062529;28;20424;-70
2022/02/21 03:41:06;;;;;;;1.63;1.00;;;10.50;99.90;;;;;;5062886;28;20412;-70
2022/02/21 03:43:31;;;;;;;1.90;0.67;;;10.40;99.90;;;;;;5062449;28;20179;-70
2022/02/21 03:45:57;;;;;;;1.83;1.07;;;9.40;99.90;;;;;;5062895;28;20203;-70
2022/02/21 03:48:23;;;;;;;1.73;0.70;;;7.40;99.90;;;;;;5063117;28;20675;-71
2022/02/21 03:50:48;;;;;;;1.10;0.70;;;5.90;99.90;;;;;;5062352;28;20500;-72
2022/02/21 03:53:14;;;;;;;1.43;0.80;;;5.40;99.90;;;;;;5063450;28;20193;-71
2022/02/21 03:55:40;;;;;;;2.23;0.70;;;5.20;99.90;;;;;;5061958;28;20213;-71
2022/02/21 03:58:06;;;;;;;1.10;0.70;;;5.20;99.90;;;;;;5063352;28;20173;-71
2022/02/21 04:00:32;;;;;;;1.10;0.60;;;5.20;99.90;;;;;;5061120;28;20439;-70
2022/02/21 04:02:57;;;;;;;1.20;0.70;;;5.10;99.90;;;;;;5062985;28;20253;-71
2022/02/21 04:05:23;;;;;;;2.30;0.80;;;5.10;99.90;;;;;;5061959;28;20539;-71
2022/02/21 04:07:49;;;;;;;1.93;0.63;;;5.20;99.90;;;;;;5063183;28;20224;-71
2022/02/21 04:10:15;;;;;;;2.50;0.80;;;5.20;99.90;;;;;;5062668;28;20181;-72
2022/02/21 04:12:41;;;;;;;1.80;0.70;;;5.10;99.90;;;;;;5062687;28;20723;-71
2022/02/21 04:15:08;;;;;;;4.00;1.00;;;5.00;99.90;;;;;;5062798;28;20778;-72
2022/02/21 04:17:45;;;;;;;2.17;1.13;;;4.90;99.90;;;;;;5062231;28;21303;-71
2022/02/21 04:20:14;;;;;;;2.50;0.80;;;4.80;99.90;;;;;;5063414;28;21306;-73
2022/02/21 04:22:40;;;;;;;1.93;0.97;;;4.80;99.90;;;;;;5043925;28;20423;-73
2022/02/21 04:25:07;;;;;;;3.60;1.40;;;4.70;99.90;;;;;;5063073;28;20471;-73
2022/02/21 04:27:48;;;;;;;2.17;0.80;;;4.70;99.90;;;;;;5061568;28;20469;-72
2022/02/21 04:30:16;;;;;;;1.93;0.83;;;4.70;99.90;;;;;;5045278;28;20791;-72
2022/02/21 04:32:43;;;;;;;3.77;1.67;;;4.70;99.90;;;;;;5062008;28;20452;-73
2022/02/21 04:35:10;;;;;;;5.73;1.20;;;4.80;99.90;;;;;;5063026;28;20419;-74
2022/02/21 04:37:37;;;;;;;4.70;1.30;;;4.80;99.90;;;;;;5061543;28;20432;-72
2022/02/21 04:40:08;;;;;;;5.00;2.00;;;4.80;99.90;;;;;;5062872;28;20408;-72
2022/02/21 04:42:34;;;;;;;4.00;1.10;;;4.80;99.90;;;;;;5061379;28;20415;-72
2022/02/21 04:44:59;;;;;;;2.37;1.17;;;4.80;99.90;;;;;;5066182;28;20543;-72
2022/02/21 04:47:25;;;;;;;5.17;1.70;;;4.80;99.90;;;;;;5065531;28;20499;-74
2022/02/21 04:49:51;;;;;;;3.07;1.00;;;4.90;99.90;;;;;;5066307;28;20201;-73
2022/02/21 04:52:17;;;;;;;4.93;1.53;;;4.90;99.90;;;;;;5065800;28;20174;-72
2022/02/21 04:54:42;;;;;;;4.20;1.60;;;4.90;99.90;;;;;;5067361;28;20470;-72
2022/02/21 04:57:08;;;;;;;2.13;1.20;;;4.90;99.90;;;;;;5069641;28;20173;-72
2022/02/21 04:59:34;;;;;;;6.10;1.67;;;5.00;99.90;;;;;;5073353;28;20246;-73
2022/02/21 05:02:00;;;;;;;3.60;1.73;;;5.00;99.90;;;;;;5068651;28;20194;-72
2022/02/21 05:04:29;;;;;;;5.20;1.40;;;5.00;99.90;;;;;;5064841;28;20724;-71
2022/02/21 05:06:55;;;;;;;3.43;1.70;;;5.00;99.90;;;;;;5065983;28;20416;-71
2022/02/21 05:09:20;;;;;;;3.40;1.60;;;5.00;99.90;;;;;;5064708;28;20819;-72
2022/02/21 05:11:46;;;;;;;3.43;1.60;;;5.10;99.90;;;;;;5047697;28;20426;-73
2022/02/21 05:14:11;;;;;;;4.27;2.03;;;5.20;99.90;;;;;;5065364;28;20202;-72
2022/02/21 05:16:37;;;;;;;3.30;1.67;;;5.30;99.90;;;;;;5065061;28;20920;-72
2022/02/21 05:19:03;;;;;;;4.80;1.83;;;5.40;99.90;;;;;;5065342;28;20709;-71
2022/02/21 05:21:32;;;;;;;6.63;2.10;;;5.40;99.90;;;;;;5064975;28;20555;-71
2022/02/21 05:23:58;;;;;;;4.20;1.67;;;5.50;99.90;;;;;;5064296;28;20503;-70
2022/02/21 05:26:25;;;;;;;4.07;1.40;;;5.60;99.90;;;;;;5065215;28;20442;-72
2022/02/21 05:28:52;;;;;;;5.53;1.73;;;5.60;99.90;;;;;;5065040;28;20521;-71
2022/02/21 05:31:18;;;;;;;6.50;2.37;;;5.70;99.90;;;;;;5065366;28;20819;-71
2022/02/21 05:33:44;;;;;;;5.40;1.90;;;5.80;99.90;;;;;;5064817;28;20542;-70
2022/02/21 05:36:10;;;;;;;6.50;2.00;;;5.80;99.90;;;;;;5046809;28;20682;-70
2022/02/21 05:38:35;;;;;;;3.83;1.90;;;5.80;99.90;;;;;;5064799;28;20769;-70
2022/02/21 05:41:01;;;;;;;5.30;2.00;;;5.80;99.90;;;;;;5064510;28;20700;-69
2022/02/21 05:43:26;;;;;;;5.23;2.10;;;5.90;99.90;;;;;;5065508;28;20811;-70
2022/02/21 05:45:52;;;;;;;6.80;2.50;;;6.00;99.90;;;;;;5063893;28;20194;-72
2022/02/21 05:48:17;;;;;;;9.77;2.40;;;6.10;99.90;;;;;;5065243;28;21059;-70
2022/02/21 05:50:43;;;;;;;7.47;2.47;;;6.10;99.90;;;;;;5063796;28;20178;-71
2022/02/21 05:53:08;;;;;;;5.60;2.33;;;6.10;99.90;;;;;;5065197;28;20174;-70
2022/02/21 05:55:34;;;;;;;9.03;2.30;;;6.20;99.90;;;;;;5063637;28;20217;-70
2022/02/21 05:58:00;;;;;;;10.27;2.20;;;6.20;99.90;;;;;;5064228;28;20266;-71
2022/02/21 06:00:26;;;;;;;6.60;2.40;;;6.20;99.90;;;;;;5065080;28;20622;-70
2022/02/21 06:02:52;;;;;;;8.47;2.80;;;6.30;99.90;;;;;;5064353;28;20438;-72
2022/02/21 06:05:18;;;;;;;6.10;2.07;;;6.30;99.90;;;;;;5064351;28;20471;-70
2022/02/21 06:07:43;;;;;;;16.13;3.63;;;6.30;99.90;;;;;;5064072;28;20450;-71
2022/02/21 06:10:09;;;;;;;9.80;2.27;;;6.30;99.90;;;;;;5064282;28;20416;-70
2022/02/21 06:12:35;;;;;;;6.50;2.00;;;6.20;99.90;;;;;;5064090;28;20437;-70
2022/02/21 06:15:01;;;;;;;6.23;2.70;;;6.20;99.90;;;;;;5046824;28;20271;-70
2022/02/21 06:17:26;;;;;;;6.33;2.20;;;6.30;99.90;;;;;;5064324;28;20178;-72
2022/02/21 06:19:52;;;;;;;7.60;2.40;;;6.30;99.90;;;;;;5064713;28;20231;-70
2022/02/21 06:22:18;;;;;;;8.97;3.00;;;6.40;99.90;;;;;;5046242;28;20222;-70
2022/02/21 06:24:44;;;;;;;7.90;3.07;;;6.30;99.90;;;;;;5064210;28;20203;-69
2022/02/21 06:27:10;;;;;;;12.67;3.13;;;6.40;99.90;;;;;;5063134;28;20185;-71
2022/02/21 06:29:36;;;;;;;6.53;2.40;;;6.40;99.90;;;;;;5064196;28;20463;-69
2022/02/21 06:32:02;;;;;;;6.87;2.13;;;6.40;99.90;;;;;;5064387;28;20341;-70
2022/02/21 06:34:28;;;;;;;6.53;2.53;;;6.30;99.90;;;;;;5062872;28;20444;-72
2022/02/21 06:36:53;;;;;;;7.20;2.90;;;6.30;99.90;;;;;;5064422;28;20841;-70
2022/02/21 06:39:19;;;;;;;8.27;2.20;;;6.30;99.90;;;;;;5063673;28;20178;-71
2022/02/21 06:41:46;;;;;;;12.20;2.43;;;6.40;99.90;;;;;;5063289;28;20241;-70
2022/02/21 06:44:13;;;;;;;7.50;3.20;;;6.40;99.90;;;;;;5063524;28;20201;-71
2022/02/21 06:46:39;;;;;;;8.63;2.53;;;6.50;99.90;;;;;;5062998;28;20435;-71
2022/02/21 06:49:05;;;;;;;7.57;2.97;;;6.50;99.90;;;;;;5063909;28;20490;-71
2022/02/21 06:51:31;;;;;;;6.20;1.97;;;6.40;99.90;;;;;;5063098;28;20594;-71
2022/02/21 06:53:56;;;;;;;3.90;1.70;;;6.40;99.90;;;;;;5062662;28;20542;-69
2022/02/21 06:56:22;;;;;;;6.40;3.63;;;6.40;99.90;;;;;;5063328;28;20551;-70
2022/02/21 06:58:48;;;;;;;6.03;1.97;;;6.50;99.90;;;;;;5062936;28;20203;-70
2022/02/21 07:01:13;;;;;;;7.93;2.33;;;6.40;99.90;;;;;;5063657;28;20179;-70
2022/02/21 07:03:39;;;;;;;6.40;1.80;;;6.40;99.90;;;;;;5062556;28;20185;-70
2022/02/21 07:06:05;;;;;;;11.43;2.70;;;6.40;99.90;;;;;;5063231;28;20871;-70
2022/02/21 07:08:31;;;;;;;9.00;2.40;;;6.30;99.90;;;;;;5062756;28;20220;-69
2022/02/21 07:10:57;;;;;;;6.13;2.53;;;6.20;99.90;;;;;;5063823;28;20425;-71
2022/02/21 07:13:22;;;;;;;8.00;2.30;;;6.10;99.90;;;;;;5084755;22;20565;-68
2022/02/21 07:15:48;;;;;;;5.83;2.80;;;6.10;99.90;;;;;;5043803;28;20175;-69
2022/02/21 07:18:14;;;;;;;12.80;2.90;;;6.10;99.90;;;;;;5042042;28;20195;-70
2022/02/21 07:20:40;;;;;;;8.60;3.17;;;6.00;99.90;;;;;;5041920;28;20224;-70
2022/02/21 07:23:06;;;;;;;8.00;2.97;;;6.00;99.90;;;;;;5042325;28;20417;-69
2022/02/21 07:25:31;;;;;;;16.90;3.60;;;6.00;99.90;;;;;;5043681;28;20229;-70
2022/02/21 07:27:57;;;;;;;9.30;2.70;;;6.00;99.90;;;;;;5041978;28;20508;-71
2022/02/21 07:30:23;;;;;;;6.50;2.07;;;6.00;99.90;;;;;;5043345;28;20236;-71
2022/02/21 07:32:49;;;;;;;5.03;2.43;;;6.00;99.90;;;;;;5024573;28;20175;-71
2022/02/21 07:35:15;;;;;;;6.80;2.13;;;5.90;99.90;;;;;;5025235;28;20444;-69
2022/02/21 07:37:41;;;;;;;10.87;2.90;;;5.90;99.90;;;;;;5027573;28;20281;-71
2022/02/21 07:40:08;;;;;;;4.50;2.20;;;6.00;99.90;;;;;;5024178;28;20434;-70
2022/02/21 07:42:34;;;;;;;17.50;3.30;;;6.00;99.90;;;;;;5028870;28;20278;-70
2022/02/21 07:45:00;;;;;;;11.43;2.87;;;6.10;99.90;;;;;;5031389;28;20488;-69
2022/02/21 07:47:27;;;;;;;6.10;2.70;;;6.10;99.90;;;;;;5043511;28;20420;-69
2022/02/21 07:49:52;;;;;;;8.80;2.83;;;6.10;99.90;;;;;;5042404;28;20448;-70
2022/02/21 07:52:18;;;;;;;13.27;3.07;;;6.10;99.90;;;;;;5043458;28;20475;-70
2022/02/21 07:54:45;;;;;;;9.87;2.57;;;6.20;99.90;;;;;;5042469;28;20225;-71
2022/02/21 07:57:11;;;;;;;10.80;2.60;;;6.20;99.90;;;;;;5042494;28;20221;-70
2022/02/21 07:59:37;;;;;;;12.23;3.10;;;6.20;99.90;;;;;;5042036;28;20444;-70
2022/02/21 08:02:03;;;;;;;13.00;3.40;;;6.30;99.90;;;;;;5044039;28;20529;-69
2022/02/21 08:04:29;;;;;;;9.37;3.00;;;6.30;99.90;;;;;;5042102;28;21018;-70
2022/02/21 08:06:54;;;;;;;5.20;2.13;;;6.40;99.90;;;;;;5043248;28;20800;-71
2022/02/21 08:09:23;;;;;;;16.53;3.53;;;6.40;99.90;;;;;;5043014;28;20452;-69
2022/02/21 08:11:49;;;;;;;9.40;3.00;;;6.50;99.90;;;;;;5042449;28;20263;-69
2022/02/21 08:14:14;;;;;;;9.03;3.47;;;6.60;99.90;;;;;;5028320;28;20534;-70
2022/02/21 08:16:40;;;;;;;13.90;3.23;;;6.70;99.90;;;;;;5042297;28;20421;-70
2022/02/21 08:19:06;;;;;;;6.73;2.30;;;6.70;99.90;;;;;;5035678;28;20183;-71
2022/02/21 08:21:33;;;;;;;7.73;3.23;;;6.70;99.90;;;;;;5046627;28;20183;-70
2022/02/21 08:23:59;;;;;;;8.63;2.83;;;6.80;99.90;;;;;;5045762;28;20492;-71
2022/02/21 08:26:24;;;;;;;12.00;3.83;;;7.00;99.90;;;;;;5046483;28;20413;-70
2022/02/21 08:28:50;;;;;;;10.97;3.63;;;7.20;99.90;;;;;;5045451;28;20274;-71
2022/02/21 08:31:16;;;;;;;14.23;3.60;;;7.30;99.90;;;;;;5046451;28;20176;-69
2022/02/21 08:33:41;;;;;;;9.23;3.27;;;7.40;99.90;;;;;;5031678;28;20513;-69
2022/02/21 08:36:07;;;;;;;7.47;2.57;;;7.50;99.90;;;;;;5046105;28;20255;-70
2022/02/21 08:38:33;;;;;;;8.30;3.20;;;7.40;99.90;;;;;;5028784;28;20627;-71
2022/02/21 08:40:58;;;;;;;10.87;3.10;;;7.40;99.90;;;;;;5046183;28;20177;-71
2022/02/21 08:43:28;;;;;;;8.90;3.03;;;7.40;99.90;;;;;;5029719;28;20447;-68
2022/02/21 08:45:55;;;;;;;10.67;3.30;;;7.50;99.90;;;;;;5045538;28;20181;-69
2022/02/21 08:48:21;;;;;;;11.87;2.60;;;7.50;99.90;;;;;;5046387;28;20508;-69
2022/02/21 08:50:46;;;;;;;8.40;3.00;;;7.60;99.90;;;;;;5045402;28;20826;-70
2022/02/21 08:53:12;;;;;;;9.60;2.70;;;7.70;99.90;;;;;;5046886;28;20175;-68
2022/02/21 08:55:38;;;;;;;9.33;2.73;;;7.80;99.90;;;;;;5045619;28;20196;-71
2022/02/21 08:58:03;;;;;;;10.50;3.00;;;7.70;99.90;;;;;;5045926;28;20189;-71
2022/02/21 09:00:29;;;;;;;10.47;2.67;;;7.90;99.90;;;;;;5046080;28;20513;-73
2022/02/21 09:02:57;;;;;;;5.60;3.00;;;7.90;99.90;;;;;;5045104;28;20291;-70
2022/02/21 09:05:25;;;;;;;15.10;4.10;;;7.90;99.90;;;;;;5046166;28;20180;-68
2022/02/21 09:07:51;;;;;;;7.03;2.63;;;7.90;99.90;;;;;;5045931;28;20414;-70
2022/02/21 09:10:16;;;;;;;6.27;2.67;;;7.90;99.90;;;;;;5045117;28;20412;-69
2022/02/21 09:12:42;;;;;;;9.57;3.47;;;7.90;99.90;;;;;;5045842;28;20425;-70
2022/02/21 09:15:08;;;;;;;6.73;2.80;;;8.00;99.90;;;;;;5045864;28;20600;-69
2022/02/21 09:17:34;;;;;;;6.90;2.53;;;8.00;99.90;;;;;;5045040;28;20173;-70
2022/02/21 09:19:59;;;;;;;8.00;3.17;;;8.00;99.90;;;;;;5046267;28;20246;-70
2022/02/21 09:22:25;;;;;;;5.83;2.80;;;8.10;99.90;;;;;;5044747;28;20921;-70
2022/02/21 09:24:51;;;;;;;9.83;3.10;;;8.20;99.90;;;;;;5045671;28;20204;-71
2022/02/21 09:27:16;;;;;;;6.00;2.17;;;8.20;99.90;;;;;;5044055;28;20176;-70
2022/02/21 09:29:44;;;;;;;7.83;2.93;;;8.00;99.90;;;;;;5045302;28;20245;-69
2022/02/21 09:32:10;;;;;;;7.93;3.23;;;8.20;99.90;;;;;;5044250;28;20467;-67
2022/02/21 09:34:36;;;;;;;10.00;2.93;;;8.10;99.90;;;;;;5045646;28;20433;-68
2022/02/21 09:37:01;;;;;;;8.87;3.70;;;8.30;99.90;;;;;;5044248;28;20475;-69
2022/02/21 09:39:27;;;;;;;12.03;2.60;;;8.40;99.90;;;;;;5044795;28;20177;-70
2022/02/21 09:41:54;;;;;;;6.37;2.73;;;8.60;99.90;;;;;;5045030;28;20224;-71
2022/02/21 09:44:19;;;;;;;12.77;3.33;;;8.40;99.90;;;;;;5043822;28;20311;-70
2022/02/21 09:46:48;;;;;;;7.73;2.87;;;8.30;99.90;;;;;;5045165;28;20492;-70
2022/02/21 09:49:16;;;;;;;12.43;2.80;;;8.10;99.90;;;;;;5025976;28;20268;-72
2022/02/21 09:51:42;;;;;;;9.23;3.53;;;8.10;99.90;;;;;;5044908;28;20750;-68
2022/02/21 09:54:11;;;;;;;12.73;3.43;;;8.10;99.90;;;;;;5043233;28;20449;-71
2022/02/21 09:56:37;;;;;;;9.60;3.00;;;8.20;99.90;;;;;;5045080;28;20871;-70
2022/02/21 09:59:03;;;;;;;9.73;2.63;;;8.30;99.90;;;;;;5043759;28;20770;-70
2022/02/21 10:01:28;;;;;;;6.93;2.67;;;8.20;99.90;;;;;;5045759;28;20462;-70
2022/02/21 10:03:57;;;;;;;10.10;2.60;;;8.40;99.90;;;;;;5043561;28;20194;-71
2022/02/21 10:06:29;;;;;;;7.67;3.00;;;8.60;99.90;;;;;;5043441;28;20464;-70
2022/02/21 10:09:00;;;;;;;11.40;4.00;;;8.70;99.90;;;;;;5042212;28;20997;-70
2022/02/21 10:11:32;;;;;;;5.13;2.30;;;9.00;99.90;;;;;;5043157;28;20422;-70
2022/02/21 10:14:04;;;;;;;11.07;3.00;;;8.70;99.90;;;;;;5043584;28;20468;-70
2022/02/21 10:16:46;;;;;;;10.47;3.03;;;8.60;99.90;;;;;;5044339;28;20434;-71
2022/02/21 10:19:24;;;;;;;7.83;2.90;;;8.60;99.90;;;;;;5033252;28;20424;-68
2022/02/21 10:21:57;;;;;;;6.67;2.60;;;8.40;99.90;;;;;;5044214;28;20408;-70
2022/02/21 10:24:24;;;;;;;8.70;2.20;;;8.30;99.90;;;;;;5043496;28;20439;-71
2022/02/21 10:26:50;;;;;;;12.17;2.93;;;8.30;99.90;;;;;;5044661;28;20503;-69
2022/02/21 10:29:18;;;;;;;7.40;2.37;;;8.30;99.90;;;;;;5043876;28;20456;-71
2022/02/21 10:31:44;;;;;;;5.83;2.00;;;8.50;99.90;;;;;;5043851;28;20427;-70
2022/02/21 10:34:09;;;;;;;5.07;2.17;;;8.40;99.90;;;;;;5044095;28;20428;-70
2022/02/21 10:36:41;;;;;;;7.30;2.60;;;8.50;99.90;;;;;;5043402;28;20181;-69
2022/02/21 10:39:13;;;;;;;6.07;2.10;;;8.60;99.90;;;;;;5044446;28;20181;-71
2022/02/21 10:41:41;;;;;;;6.50;1.77;;;8.80;99.90;;;;;;5043141;28;20426;-71
2022/02/21 10:44:16;;;;;;;7.07;2.47;;;8.90;99.90;;;;;;5044152;28;20431;-70
2022/02/21 10:46:44;;;;;;;7.10;2.50;;;8.70;99.90;;;;;;5042699;28;21023;-70
2022/02/21 10:49:11;;;;;;;7.90;2.40;;;8.70;99.90;;;;;;5044169;28;20459;-69
2022/02/21 10:51:37;;;;;;;7.13;2.37;;;8.60;99.90;;;;;;5043763;28;20552;-70
2022/02/21 10:54:09;;;;;;;6.33;2.47;;;8.70;99.90;;;;;;5043431;28;20436;-68
2022/02/21 10:56:44;;;;;;;7.13;2.13;;;8.80;99.90;;;;;;5043426;28;20398;-70
2022/02/21 10:59:20;;;;;;;3.60;1.93;;;8.90;99.90;;;;;;5043799;28;20412;-70
2022/02/21 11:01:48;;;;;;;6.60;2.30;;;8.90;99.90;;;;;;5042645;28;20428;-70
2022/02/21 11:04:14;;;;;;;13.33;2.63;;;8.80;99.90;;;;;;5043566;28;20461;-69
2022/02/21 11:06:40;;;;;;;3.67;1.87;;;8.80;99.90;;;;;;5042284;28;20429;-71
2022/02/21 11:09:08;;;;;;;5.87;1.90;;;8.80;99.70;;;;;;5043823;28;20481;-70
2022/02/21 11:11:37;;;;;;;4.47;2.27;;;8.90;99.20;;;;;;5042797;28;20492;-70
2022/02/21 11:14:04;;;;;;;4.97;1.83;;;9.10;99.10;;;;;;5043081;28;21233;-70
2022/02/21 11:16:34;;;;;;;3.80;1.63;;;9.10;98.80;;;;;;5043196;28;20800;-69
2022/02/21 11:19:00;;;;;;;5.33;2.00;;;9.30;98.90;;;;;;5043286;28;21458;-71
2022/02/21 11:21:26;;;;;;;4.03;1.63;;;9.50;98.30;;;;;;5042929;28;20422;-71
2022/02/21 11:23:52;;;;;;;4.13;1.93;;;9.60;98.40;;;;;;5043015;28;20446;-70
2022/02/21 11:26:26;;;;;;;5.10;1.97;;;9.40;98.50;;;;;;5042839;28;20212;-69
2022/02/21 11:29:01;;;;;;;4.97;2.10;;;9.00;99.10;;;;;;5043555;28;20466;-69
2022/02/21 11:31:34;;;;;;;7.90;1.97;;;9.30;99.90;;;;;;5043187;28;20427;-70
2022/02/21 11:34:02;;;;;;;5.70;2.07;;;9.90;99.60;;;;;;5043512;28;20431;-71
2022/02/21 11:36:28;;;;;;;8.07;2.13;;;9.80;99.70;;;;;;5041909;28;20504;-69
2022/02/21 11:38:57;;;;;;;6.40;2.20;;;9.60;99.90;;;;;;5043380;28;20712;-68
2022/02/21 11:41:36;;;;;;;7.60;2.33;;;9.30;99.90;;;;;;5042056;28;20417;-71
2022/02/21 11:44:21;;;;;;;4.90;2.07;;;9.10;99.90;;;;;;5043177;28;20451;-68
2022/02/21 11:46:48;;;;;;;6.90;2.87;;;8.60;99.90;;;;;;5041366;28;20452;-70
2022/02/21 11:49:30;;;;;;;4.77;1.97;;;8.60;99.90;;;;;;5042513;28;20463;-69
2022/02/21 11:51:57;;;;;;;2.33;1.40;;;9.50;99.90;;;;;;5043154;28;20843;-70
2022/02/21 11:54:22;;;;;;;5.50;2.13;;;10.90;99.90;;;;;;5044950;28;20450;-68
2022/02/21 11:56:48;;;;;;;5.17;1.97;;;11.60;99.90;;;;;;5047914;28;20713;-70
2022/02/21 11:59:22;;;;;;;4.30;1.67;;;13.00;98.60;;;;;;5046347;28;20605;-70
2022/02/21 12:01:49;;;;;;;7.00;2.20;;;13.20;96.20;;;;;;5047834;28;20583;-69
2022/02/21 12:04:17;;;;;;;3.77;1.90;;;13.30;95.10;;;;;;5046667;28;20897;-70
2022/02/21 12:06:54;;;;;;;4.47;2.27;;;12.80;95.10;;;;;;5047608;28;20417;-68
2022/02/21 12:09:20;;;;;;;3.20;1.53;;;11.60;96.00;;;;;;5047159;28;21058;-72
2022/02/21 12:11:46;;;;;;;3.27;1.90;;;11.30;96.90;;;;;;5047900;28;20486;-71
2022/02/21 12:14:11;;;;;;;4.83;1.70;;;11.20;96.70;;;;;;5047088;28;20945;-68
2022/02/21 12:17:00;;;;;;;4.00;2.20;;;10.50;96.00;;;;;;5048557;28;20245;-69
2022/02/21 12:19:33;;;;;;;3.77;1.67;;;10.40;96.40;;;;;;5047721;28;20181;-69
2022/02/21 12:22:11;;;;;;;5.20;2.10;;;10.30;95.70;;;;;;5046801;28;20467;-70
2022/02/21 12:25:05;;;;;;;6.40;2.03;;;10.20;95.20;;;;;;5046691;28;20440;-71
2022/02/21 12:27:31;;;;;;;6.57;2.47;;;10.20;94.90;;;;;;5046763;28;20842;-70
2022/02/21 12:29:56;;;;;;;3.83;1.43;;;10.10;94.60;;;;;;5045957;28;20447;-70
2022/02/21 12:32:28;;;;;;;4.90;1.70;;;10.10;94.50;;;;;;5046534;28;20226;-70
2022/02/21 12:34:55;;;;;;;6.60;1.87;;;9.90;95.20;;;;;;5045864;28;20198;-70
2022/02/21 12:37:21;;;;;;;2.80;1.70;;;9.60;95.70;;;;;;5047360;28;20415;-69
2022/02/21 12:39:47;;;;;;;5.60;1.33;;;9.30;95.20;;;;;;5046986;28;20776;-69
2022/02/21 12:42:16;;;;;;;7.07;1.70;;;9.30;95.80;;;;;;5047888;28;20261;-69
2022/02/21 12:44:42;;;;;;;4.50;1.67;;;9.50;96.10;;;;;;5046143;28;20446;-70
2022/02/21 12:47:07;;;;;;;3.63;1.47;;;9.60;96.10;;;;;;5049027;28;20430;-71
2022/02/21 12:49:40;;;;;;;3.50;1.90;;;9.60;95.80;;;;;;5047510;28;20278;-70
2022/02/21 12:52:07;;;;;;;5.73;2.47;;;9.60;95.80;;;;;;5047204;28;20475;-69